sensor_id;sensor_type;location;lat;lon;timestamp;pressure;altitude;pressure_sealevel;temperature;humidity
12178;BME280;6152;48.728;9.256;2023-12-20T00:01:12;97082.31;;;5.32;100.00
12178;BME280;6152;48.728;9.256;2023-12-20T00:03:38;97079.72;;;5.32;100.00
12178;BME280;6152;48.728;9.256;2023-12-20T00:06:04;97065.13;;;5.31;100.00
12178;BME280;6152;48.728;9.256;2023-12-20T00:08:30;97055.88;;;5.27;100.00
12178;BME280;6152;48.728;9.256;2023-12-20T00:10:56;97056.69;;;5.28;100.00
12178;BME280;6152;48.728;9.256;2023-12-20T00:13:22;97058.63;;;5.23;100.00
12178;BME280;6152;48.728;9.256;2023-12-20T00:15:48;97055.97;;;5.24;100.00
12178;BME280;6152;48.728;9.256;2023-12-20T00:18:14;97061.84;;;5.28;100.00
12178;BME280;6152;48.728;9.256;2023-12-20T00:20:40;97054.19;;;5.26;100.00
12178;BME280;6152;48.728;9.256;2023-12-20T00:23:07;97053.16;;;5.30;100.00
12178;BME280;6152;48.728;9.256;2023-12-20T00:25:34;97041.91;;;5.31;100.00
12178;BME280;6152;48.728;9.256;2023-12-20T00:28:01;97048.63;;;5.35;100.00
12178;BME280;6152;48.728;9.256;2023-12-20T00:30:28;97039.88;;;5.39;100.00
12178;BME280;6152;48.728;9.256;2023-12-20T00:32:55;97039.88;;;5.39;100.00
12178;BME280;6152;48.728;9.256;2023-12-20T00:35:21;97042.47;;;5.39;100.00
12178;BME280;6152;48.728;9.256;2023-12-20T00:37:47;97032.78;;;5.44;100.00
12178;BME280;6152;48.728;9.256;2023-12-20T00:40:13;97028.53;;;5.43;100.00
12178;BME280;6152;48.728;9.256;2023-12-20T00:42:39;97032.31;;;5.35;100.00
12178;BME280;6152;48.728;9.256;2023-12-20T00:45:06;97029.94;;;5.30;100.00
12178;BME280;6152;48.728;9.256;2023-12-20T00:47:32;97037.91;;;5.24;100.00
12178;BME280;6152;48.728;9.256;2023-12-20T00:49:58;97037.16;;;5.22;100.00
12178;BME280;6152;48.728;9.256;2023-12-20T00:52:25;97024.41;;;5.18;100.00
12178;BME280;6152;48.728;9.256;2023-12-20T00:54:51;97034.81;;;5.16;100.00
12178;BME280;6152;48.728;9.256;2023-12-20T00:57:18;97025.47;;;5.14;100.00
12178;BME280;6152;48.728;9.256;2023-12-20T00:59:44;97020.50;;;5.09;100.00
12178;BME280;6152;48.728;9.256;2023-12-20T01:02:10;97019.66;;;5.08;100.00
12178;BME280;6152;48.728;9.256;2023-12-20T01:04:36;97023.19;;;5.06;100.00
12178;BME280;6152;48.728;9.256;2023-12-20T01:07:02;97024.22;;;5.02;100.00
12178;BME280;6152;48.728;9.256;2023-12-20T01:09:28;97021.75;;;4.99;100.00
12178;BME280;6152;48.728;9.256;2023-12-20T01:11:54;97032.97;;;4.98;100.00
12178;BME280;6152;48.728;9.256;2023-12-20T01:14:20;97029.75;;;4.93;100.00
12178;BME280;6152;48.728;9.256;2023-12-20T01:16:47;97028.91;;;4.92;100.00
12178;BME280;6152;48.728;9.256;2023-12-20T01:19:13;97029.84;;;4.90;100.00
12178;BME280;6152;48.728;9.256;2023-12-20T01:21:41;97035.97;;;4.87;100.00
12178;BME280;6152;48.728;9.256;2023-12-20T01:24:07;97042.09;;;4.85;100.00
12178;BME280;6152;48.728;9.256;2023-12-20T01:26:33;97039.56;;;4.83;100.00
12178;BME280;6152;48.728;9.256;2023-12-20T01:28:59;97035.25;;;4.84;100.00
12178;BME280;6152;48.728;9.256;2023-12-20T01:31:26;97035.50;;;4.78;100.00
12178;BME280;6152;48.728;9.256;2023-12-20T01:33:53;97041.41;;;4.80;100.00
12178;BME280;6152;48.728;9.256;2023-12-20T01:36:19;97045.72;;;4.79;100.00
12178;BME280;6152;48.728;9.256;2023-12-20T01:38:45;97044.25;;;4.74;100.00
12178;BME280;6152;48.728;9.256;2023-12-20T01:41:11;97044.38;;;4.71;100.00
12178;BME280;6152;48.728;9.256;2023-12-20T01:43:37;97046.06;;;4.72;100.00
12178;BME280;6152;48.728;9.256;2023-12-20T01:46:04;97039.34;;;4.68;100.00
12178;BME280;6152;48.728;9.256;2023-12-20T01:48:30;97045.47;;;4.65;100.00
12178;BME280;6152;48.728;9.256;2023-12-20T01:51:00;97046.38;;;4.63;100.00
12178;BME280;6152;48.728;9.256;2023-12-20T01:53:28;97048.06;;;4.64;100.00
12178;BME280;6152;48.728;9.256;2023-12-20T01:55:55;97046.38;;;4.63;100.00
12178;BME280;6152;48.728;9.256;2023-12-20T01:58:22;97052.47;;;4.62;100.00
12178;BME280;6152;48.728;9.256;2023-12-20T02:00:49;97044.66;;;4.63;100.00
12178;BME280;6152;48.728;9.256;2023-12-20T02:03:16;97041.34;;;4.59;100.00
12178;BME280;6152;48.728;9.256;2023-12-20T02:05:42;97032.06;;;4.55;100.00
12178;BME280;6152;48.728;9.256;2023-12-20T02:08:10;97036.44;;;4.53;100.00
12178;BME280;6152;48.728;9.256;2023-12-20T02:10:36;97037.28;;;4.54;100.00
12178;BME280;6152;48.728;9.256;2023-12-20T02:13:03;97036.44;;;4.53;100.00
12178;BME280;6152;48.728;9.256;2023-12-20T02:15:30;97028.66;;;4.55;100.00
12178;BME280;6152;48.728;9.256;2023-12-20T02:17:56;97031.16;;;4.56;100.00
12178;BME280;6152;48.728;9.256;2023-12-20T02:20:22;97032.06;;;4.55;100.00
12178;BME280;6152;48.728;9.256;2023-12-20T02:22:49;97031.28;;;4.53;100.00
12178;BME280;6152;48.728;9.256;2023-12-20T02:25:15;97036.31;;;4.56;100.00
12178;BME280;6152;48.728;9.256;2023-12-20T02:27:41;97028.66;;;4.55;100.00
12178;BME280;6152;48.728;9.256;2023-12-20T02:30:09;97022.78;;;4.51;100.00
12178;BME280;6152;48.728;9.256;2023-12-20T02:32:36;97029.59;;;4.52;100.00
12178;BME280;6152;48.728;9.256;2023-12-20T02:35:02;97027.88;;;4.53;100.00
12178;BME280;6152;48.728;9.256;2023-12-20T02:37:28;97020.13;;;4.53;100.00
12178;BME280;6152;48.728;9.256;2023-12-20T02:39:54;97023.56;;;4.53;100.00
12178;BME280;6152;48.728;9.256;2023-12-20T02:42:20;97029.56;;;4.54;100.00
12178;BME280;6152;48.728;9.256;2023-12-20T02:44:46;97036.44;;;4.53;100.00
12178;BME280;6152;48.728;9.256;2023-12-20T02:47:12;97039.91;;;4.52;100.00
12178;BME280;6152;48.728;9.256;2023-12-20T02:49:38;97029.59;;;4.52;100.00
12178;BME280;6152;48.728;9.256;2023-12-20T02:52:05;97039.00;;;4.53;100.00
12178;BME280;6152;48.728;9.256;2023-12-20T02:54:31;97033.09;;;4.51;100.00
12178;BME280;6152;48.728;9.256;2023-12-20T02:56:57;97038.25;;;4.51;100.00
12178;BME280;6152;48.728;9.256;2023-12-20T02:59:23;97031.28;;;4.53;100.00
12178;BME280;6152;48.728;9.256;2023-12-20T03:01:49;97035.59;;;4.53;100.00
12178;BME280;6152;48.728;9.256;2023-12-20T03:04:15;97044.81;;;4.58;100.00
12178;BME280;6152;48.728;9.256;2023-12-20T03:06:41;97040.59;;;4.57;100.00
12178;BME280;6152;48.728;9.256;2023-12-20T03:09:07;97044.81;;;4.58;100.00
12178;BME280;6152;48.728;9.256;2023-12-20T03:11:33;97048.31;;;4.57;100.00
12178;BME280;6152;48.728;9.256;2023-12-20T03:13:59;97042.44;;;4.54;100.00
12178;BME280;6152;48.728;9.256;2023-12-20T03:16:26;97048.47;;;4.53;100.00
12178;BME280;6152;48.728;9.256;2023-12-20T03:18:52;97050.22;;;4.52;100.00
12178;BME280;6152;48.728;9.256;2023-12-20T03:21:18;97062.97;;;4.55;100.00
12178;BME280;6152;48.728;9.256;2023-12-20T03:23:44;97055.13;;;4.58;100.00
12178;BME280;6152;48.728;9.256;2023-12-20T03:26:11;97056.03;;;4.57;100.00
12178;BME280;6152;48.728;9.256;2023-12-20T03:28:37;97050.03;;;4.57;100.00
12178;BME280;6152;48.728;9.256;2023-12-20T03:31:03;97055.31;;;4.54;100.00
12178;BME280;6152;48.728;9.256;2023-12-20T03:33:30;97059.63;;;4.53;100.00
12178;BME280;6152;48.728;9.256;2023-12-20T03:35:56;97052.03;;;4.50;100.00
12178;BME280;6152;48.728;9.256;2023-12-20T03:38:22;97056.28;;;4.51;100.00
12178;BME280;6152;48.728;9.256;2023-12-20T03:40:51;97060.53;;;4.52;100.00
12178;BME280;6152;48.728;9.256;2023-12-20T03:43:17;97065.66;;;4.52;100.00
12178;BME280;6152;48.728;9.256;2023-12-20T03:45:43;97064.91;;;4.50;100.00
12178;BME280;6152;48.728;9.256;2023-12-20T03:48:10;97065.75;;;4.51;100.00
12178;BME280;6152;48.728;9.256;2023-12-20T03:50:36;97073.41;;;4.52;100.00
12178;BME280;6152;48.728;9.256;2023-12-20T03:53:02;97063.94;;;4.53;100.00
12178;BME280;6152;48.728;9.256;2023-12-20T03:55:29;97068.44;;;4.48;100.00
12178;BME280;6152;48.728;9.256;2023-12-20T03:57:55;97075.38;;;4.46;100.00
12178;BME280;6152;48.728;9.256;2023-12-20T04:00:22;97078.03;;;4.44;100.00
12178;BME280;6152;48.728;9.256;2023-12-20T04:02:48;97067.72;;;4.44;100.00
12178;BME280;6152;48.728;9.256;2023-12-20T04:05:14;97059.91;;;4.46;100.00
12178;BME280;6152;48.728;9.256;2023-12-20T04:07:40;97067.72;;;4.44;100.00
12178;BME280;6152;48.728;9.256;2023-12-20T04:10:06;97081.59;;;4.40;100.00
12178;BME280;6152;48.728;9.256;2023-12-20T04:12:33;97088.53;;;4.38;100.00
12178;BME280;6152;48.728;9.256;2023-12-20T04:14:59;97082.25;;;4.45;100.00
12178;BME280;6152;48.728;9.256;2023-12-20T04:17:25;97078.22;;;4.38;100.00
12178;BME280;6152;48.728;9.256;2023-12-20T04:19:52;97070.69;;;4.34;100.00
12178;BME280;6152;48.728;9.256;2023-12-20T04:22:18;97075.00;;;4.33;100.00
12178;BME280;6152;48.728;9.256;2023-12-20T04:24:45;97071.63;;;4.31;100.00
12178;BME280;6152;48.728;9.256;2023-12-20T04:27:11;97081.09;;;4.31;100.00
12178;BME280;6152;48.728;9.256;2023-12-20T04:29:37;97095.81;;;4.27;100.00
12178;BME280;6152;48.728;9.256;2023-12-20T04:32:04;97107.06;;;4.25;100.00
12178;BME280;6152;48.728;9.256;2023-12-20T04:34:30;97104.59;;;4.22;100.00
12178;BME280;6152;48.728;9.256;2023-12-20T04:36:56;97097.81;;;4.19;100.00
12178;BME280;6152;48.728;9.256;2023-12-20T04:39:22;97091.84;;;4.19;100.00
12178;BME280;6152;48.728;9.256;2023-12-20T04:41:48;97097.09;;;4.16;100.00
12178;BME280;6152;48.728;9.256;2023-12-20T04:44:16;97094.47;;;4.17;100.00
12178;BME280;6152;48.728;9.256;2023-12-20T04:46:42;97088.47;;;4.17;100.00
12178;BME280;6152;48.728;9.256;2023-12-20T04:49:08;97101.41;;;4.15;100.00
12178;BME280;6152;48.728;9.256;2023-12-20T04:51:34;97108.25;;;4.16;100.00
12178;BME280;6152;48.728;9.256;2023-12-20T04:54:01;97115.97;;;4.16;100.00
12178;BME280;6152;48.728;9.256;2023-12-20T04:56:27;97116.00;;;4.15;100.00
12178;BME280;6152;48.728;9.256;2023-12-20T04:58:53;97107.56;;;4.11;100.00
12178;BME280;6152;48.728;9.256;2023-12-20T05:01:20;97095.59;;;4.10;100.00
12178;BME280;6152;48.728;9.256;2023-12-20T05:03:47;97103.34;;;4.08;100.00
12178;BME280;6152;48.728;9.256;2023-12-20T05:06:13;97110.34;;;4.05;100.00
12178;BME280;6152;48.728;9.256;2023-12-20T05:08:40;97117.19;;;4.06;100.00
12178;BME280;6152;48.728;9.256;2023-12-20T05:11:06;97118.84;;;4.07;100.00
12178;BME280;6152;48.728;9.256;2023-12-20T05:13:32;97122.25;;;4.07;100.00
12178;BME280;6152;48.728;9.256;2023-12-20T05:15:59;97118.06;;;4.05;100.00
12178;BME280;6152;48.728;9.256;2023-12-20T05:18:25;97120.66;;;4.05;100.00
12178;BME280;6152;48.728;9.256;2023-12-20T05:20:51;97129.22;;;4.05;100.00
12178;BME280;6152;48.728;9.256;2023-12-20T05:23:18;97130.16;;;4.03;100.00
12178;BME280;6152;48.728;9.256;2023-12-20T05:25:44;97141.25;;;4.05;100.00
12178;BME280;6152;48.728;9.256;2023-12-20T05:28:10;97148.09;;;4.06;100.00
12178;BME280;6152;48.728;9.256;2023-12-20T05:30:36;97139.44;;;4.07;100.00
12178;BME280;6152;48.728;9.256;2023-12-20T05:33:02;97143.66;;;4.10;100.00
12178;BME280;6152;48.728;9.256;2023-12-20T05:35:28;97144.44;;;4.12;100.00
12178;BME280;6152;48.728;9.256;2023-12-20T05:37:54;97140.28;;;4.07;100.00
12178;BME280;6152;48.728;9.256;2023-12-20T05:40:20;97144.59;;;4.07;100.00
12178;BME280;6152;48.728;9.256;2023-12-20T05:42:46;97159.22;;;4.06;100.00
12178;BME280;6152;48.728;9.256;2023-12-20T05:45:15;97154.97;;;4.05;100.00
12178;BME280;6152;48.728;9.256;2023-12-20T05:47:41;97157.66;;;4.02;100.00
12178;BME280;6152;48.728;9.256;2023-12-20T05:50:07;97160.25;;;4.01;100.00
12178;BME280;6152;48.728;9.256;2023-12-20T05:52:33;97170.44;;;4.04;100.00
12178;BME280;6152;48.728;9.256;2023-12-20T05:55:00;97170.56;;;4.01;100.00
12178;BME280;6152;48.728;9.256;2023-12-20T05:57:29;97174.72;;;4.05;100.00
12178;BME280;6152;48.728;9.256;2023-12-20T05:59:55;97177.28;;;4.05;100.00
12178;BME280;6152;48.728;9.256;2023-12-20T06:02:21;97188.31;;;4.08;100.00
12178;BME280;6152;48.728;9.256;2023-12-20T06:04:47;97189.28;;;4.06;100.00
12178;BME280;6152;48.728;9.256;2023-12-20T06:07:14;97188.47;;;4.04;100.00
12178;BME280;6152;48.728;9.256;2023-12-20T06:09:41;97187.59;;;4.05;100.00
12178;BME280;6152;48.728;9.256;2023-12-20T06:12:07;97187.69;;;4.02;100.00
12178;BME280;6152;48.728;9.256;2023-12-20T06:14:36;97193.69;;;4.02;100.00
12178;BME280;6152;48.728;9.256;2023-12-20T06:17:03;97194.59;;;4.00;100.00
12178;BME280;6152;48.728;9.256;2023-12-20T06:19:29;97193.78;;;3.99;100.00
12178;BME280;6152;48.728;9.256;2023-12-20T06:21:55;97204.91;;;4.00;100.00
12178;BME280;6152;48.728;9.256;2023-12-20T06:24:21;97212.69;;;3.98;100.00
12178;BME280;6152;48.728;9.256;2023-12-20T06:26:47;97207.56;;;3.98;100.00
12178;BME280;6152;48.728;9.256;2023-12-20T06:29:13;97203.34;;;3.96;100.00
12178;BME280;6152;48.728;9.256;2023-12-20T06:31:39;97203.34;;;3.96;100.00
12178;BME280;6152;48.728;9.256;2023-12-20T06:34:05;97199.88;;;3.97;100.00
12178;BME280;6152;48.728;9.256;2023-12-20T06:36:31;97189.56;;;3.97;100.00
12178;BME280;6152;48.728;9.256;2023-12-20T06:38:57;97191.25;;;3.98;100.00
12178;BME280;6152;48.728;9.256;2023-12-20T06:41:24;97197.25;;;3.98;100.00
12178;BME280;6152;48.728;9.256;2023-12-20T06:43:50;97204.09;;;3.99;100.00
12178;BME280;6152;48.728;9.256;2023-12-20T06:46:17;97210.91;;;4.00;100.00
12178;BME280;6152;48.728;9.256;2023-12-20T06:48:43;97215.22;;;4.00;100.00
12178;BME280;6152;48.728;9.256;2023-12-20T06:51:15;97217.88;;;3.97;100.00
12178;BME280;6152;48.728;9.256;2023-12-20T06:53:41;97220.47;;;3.97;100.00
12178;BME280;6152;48.728;9.256;2023-12-20T06:56:08;97211.19;;;3.93;100.00
12178;BME280;6152;48.728;9.256;2023-12-20T06:58:35;97218.72;;;3.97;100.00
12178;BME280;6152;48.728;9.256;2023-12-20T07:01:02;97217.94;;;3.95;100.00
12178;BME280;6152;48.728;9.256;2023-12-20T07:03:28;97235.09;;;3.96;100.00
12178;BME280;6152;48.728;9.256;2023-12-20T07:05:54;97236.00;;;3.94;100.00
12178;BME280;6152;48.728;9.256;2023-12-20T07:08:20;97243.72;;;3.94;100.00
12178;BME280;6152;48.728;9.256;2023-12-20T07:10:47;97241.06;;;3.97;100.00
12178;BME280;6152;48.728;9.256;2023-12-20T07:13:13;97235.00;;;3.99;100.00
12178;BME280;6152;48.728;9.256;2023-12-20T07:15:40;97245.28;;;3.99;100.00
12178;BME280;6152;48.728;9.256;2023-12-20T07:18:06;97246.09;;;4.00;100.00
12178;BME280;6152;48.728;9.256;2023-12-20T07:20:33;97255.53;;;4.01;100.00
12178;BME280;6152;48.728;9.256;2023-12-20T07:22:59;97261.50;;;4.01;100.00
12178;BME280;6152;48.728;9.256;2023-12-20T07:25:25;97264.94;;;4.02;100.00
12178;BME280;6152;48.728;9.256;2023-12-20T07:27:51;97266.63;;;4.03;100.00
12178;BME280;6152;48.728;9.256;2023-12-20T07:30:17;97263.13;;;4.04;100.00
12178;BME280;6152;48.728;9.256;2023-12-20T07:32:44;97279.44;;;4.04;100.00
12178;BME280;6152;48.728;9.256;2023-12-20T07:35:10;97283.75;;;4.04;100.00
12178;BME280;6152;48.728;9.256;2023-12-20T07:37:36;97288.88;;;4.04;100.00
12178;BME280;6152;48.728;9.256;2023-12-20T07:40:02;97293.88;;;4.10;100.00
12178;BME280;6152;48.728;9.256;2023-12-20T07:42:29;97300.69;;;4.11;100.00
12178;BME280;6152;48.728;9.256;2023-12-20T07:44:55;97293.75;;;4.13;100.00
12178;BME280;6152;48.728;9.256;2023-12-20T07:47:22;97294.44;;;4.18;100.00
12178;BME280;6152;48.728;9.256;2023-12-20T07:49:49;97297.00;;;4.18;100.00
12178;BME280;6152;48.728;9.256;2023-12-20T07:52:17;97296.91;;;4.21;100.00
12178;BME280;6152;48.728;9.256;2023-12-20T07:54:44;97305.44;;;4.23;100.00
12178;BME280;6152;48.728;9.256;2023-12-20T07:57:11;97307.31;;;4.18;100.00
12178;BME280;6152;48.728;9.256;2023-12-20T07:59:37;97291.66;;;4.24;100.00
12178;BME280;6152;48.728;9.256;2023-12-20T08:02:04;97298.72;;;4.19;100.00
12178;BME280;6152;48.728;9.256;2023-12-20T08:04:30;97300.56;;;4.14;100.00
12178;BME280;6152;48.728;9.256;2023-12-20T08:06:56;97303.31;;;4.10;100.00
12178;BME280;6152;48.728;9.256;2023-12-20T08:09:22;97305.94;;;4.08;100.00
12178;BME280;6152;48.728;9.256;2023-12-20T08:11:49;97307.72;;;4.06;100.00
12178;BME280;6152;48.728;9.256;2023-12-20T08:14:15;97313.75;;;4.05;100.00
12178;BME280;6152;48.728;9.256;2023-12-20T08:16:41;97315.38;;;4.07;100.00
12178;BME280;6152;48.728;9.256;2023-12-20T08:19:08;97317.09;;;4.07;100.00
12178;BME280;6152;48.728;9.256;2023-12-20T08:21:34;97316.94;;;4.13;100.00
12178;BME280;6152;48.728;9.256;2023-12-20T08:24:00;97320.28;;;4.15;100.00
12178;BME280;6152;48.728;9.256;2023-12-20T08:26:27;97324.50;;;4.18;100.00
12178;BME280;6152;48.728;9.256;2023-12-20T08:28:53;97326.25;;;4.17;100.00
12178;BME280;6152;48.728;9.256;2023-12-20T08:31:19;97323.59;;;4.20;100.00
12178;BME280;6152;48.728;9.256;2023-12-20T08:33:47;97318.59;;;4.14;100.00
12178;BME280;6152;48.728;9.256;2023-12-20T08:36:13;97322.97;;;4.12;100.00
12178;BME280;6152;48.728;9.256;2023-12-20T08:38:39;97328.13;;;4.12;100.00
12178;BME280;6152;48.728;9.256;2023-12-20T08:41:06;97340.22;;;4.10;100.00
12178;BME280;6152;48.728;9.256;2023-12-20T08:43:34;97341.88;;;4.11;100.00
12178;BME280;6152;48.728;9.256;2023-12-20T08:46:00;97349.69;;;4.08;100.00
12178;BME280;6152;48.728;9.256;2023-12-20T08:48:26;97336.94;;;4.05;100.00
12178;BME280;6152;48.728;9.256;2023-12-20T08:50:52;97345.53;;;4.04;100.00
12178;BME280;6152;48.728;9.256;2023-12-20T08:53:19;97348.38;;;3.96;100.00
12178;BME280;6152;48.728;9.256;2023-12-20T08:55:45;97340.47;;;4.01;100.00
12178;BME280;6152;48.728;9.256;2023-12-20T08:58:11;97350.78;;;4.01;100.00
12178;BME280;6152;48.728;9.256;2023-12-20T09:00:37;97352.47;;;4.02;100.00
12178;BME280;6152;48.728;9.256;2023-12-20T09:03:04;97359.31;;;4.03;100.00
12178;BME280;6152;48.728;9.256;2023-12-20T09:05:31;97350.09;;;3.96;100.00
12178;BME280;6152;48.728;9.256;2023-12-20T09:07:57;97349.28;;;3.94;100.00
12178;BME280;6152;48.728;9.256;2023-12-20T09:10:23;97354.63;;;3.88;100.00
12178;BME280;6152;48.728;9.256;2023-12-20T09:12:53;97347.97;;;3.81;100.00
12178;BME280;6152;48.728;9.256;2023-12-20T09:15:26;97349.88;;;3.76;100.00
12178;BME280;6152;48.728;9.256;2023-12-20T09:17:53;97347.34;;;3.73;100.00
12178;BME280;6152;48.728;9.256;2023-12-20T09:20:19;97337.06;;;3.73;100.00
12178;BME280;6152;48.728;9.256;2023-12-20T09:22:46;97339.63;;;3.73;100.00
12178;BME280;6152;48.728;9.256;2023-12-20T09:25:12;97344.13;;;3.66;100.00
12178;BME280;6152;48.728;9.256;2023-12-20T09:27:39;97343.38;;;3.63;100.00
12178;BME280;6152;48.728;9.256;2023-12-20T09:30:06;97343.53;;;3.58;100.00
12178;BME280;6152;48.728;9.256;2023-12-20T09:32:32;97358.81;;;3.63;100.00
12178;BME280;6152;48.728;9.256;2023-12-20T09:34:58;97358.56;;;3.72;100.00
12178;BME280;6152;48.728;9.256;2023-12-20T09:37:28;97359.22;;;4.06;100.00
12178;BME280;6152;48.728;9.256;2023-12-20T09:39:54;97357.84;;;4.48;100.00
12178;BME280;6152;48.728;9.256;2023-12-20T09:45:11;97356.41;;;5.62;100.00
12178;BME280;6152;48.728;9.256;2023-12-20T09:47:39;97359.75;;;6.32;100.00
12178;BME280;6152;48.728;9.256;2023-12-20T09:50:06;97354.72;;;6.71;100.00
12178;BME280;6152;48.728;9.256;2023-12-20T09:52:34;97365.38;;;7.63;100.00
12178;BME280;6152;48.728;9.256;2023-12-20T09:55:03;97367.16;;;8.17;100.00
12178;BME280;6152;48.728;9.256;2023-12-20T09:57:32;97360.91;;;9.10;100.00
12178;BME280;6152;48.728;9.256;2023-12-20T09:59:58;97365.97;;;9.79;100.00
12178;BME280;6152;48.728;9.256;2023-12-20T10:02:25;97364.44;;;10.69;100.00
12178;BME280;6152;48.728;9.256;2023-12-20T10:04:55;97366.78;;;11.17;100.00
12178;BME280;6152;48.728;9.256;2023-12-20T10:07:22;97361.78;;;12.27;100.00
12178;BME280;6152;48.728;9.256;2023-12-20T10:09:48;97361.75;;;12.68;99.25
12178;BME280;6152;48.728;9.256;2023-12-20T10:12:15;97345.06;;;13.48;78.35
12178;BME280;6152;48.728;9.256;2023-12-20T10:14:41;97361.88;;;13.82;70.30
12178;BME280;6152;48.728;9.256;2023-12-20T10:17:08;97356.69;;;14.54;58.28
12178;BME280;6152;48.728;9.256;2023-12-20T10:19:34;97357.50;;;14.55;58.18
12178;BME280;6152;48.728;9.256;2023-12-20T10:22:00;97356.53;;;13.83;58.11
12178;BME280;6152;48.728;9.256;2023-12-20T10:24:29;97343.56;;;13.82;53.74
12178;BME280;6152;48.728;9.256;2023-12-20T10:27:06;97333.31;;;13.66;54.82
12178;BME280;6152;48.728;9.256;2023-12-20T10:29:36;97326.63;;;13.75;55.50
12178;BME280;6152;48.728;9.256;2023-12-20T10:32:25;97319.47;;;14.02;52.62
12178;BME280;6152;48.728;9.256;2023-12-20T10:34:52;97318.53;;;14.03;52.65
12178;BME280;6152;48.728;9.256;2023-12-20T10:37:18;97316.19;;;14.11;53.93
12178;BME280;6152;48.728;9.256;2023-12-20T10:39:47;97314.63;;;13.09;54.63
12178;BME280;6152;48.728;9.256;2023-12-20T10:42:16;97327.00;;;11.29;58.75
12178;BME280;6152;48.728;9.256;2023-12-20T10:44:43;97323.19;;;10.31;69.13
12178;BME280;6152;48.728;9.256;2023-12-20T10:47:11;97331.28;;;9.62;82.62
12178;BME280;6152;48.728;9.256;2023-12-20T10:49:39;97334.19;;;8.91;92.67
12178;BME280;6152;48.728;9.256;2023-12-20T10:52:06;97332.28;;;8.60;100.00
12178;BME280;6152;48.728;9.256;2023-12-20T10:54:34;97326.69;;;8.33;100.00
12178;BME280;6152;48.728;9.256;2023-12-20T10:57:03;97325.75;;;7.98;100.00
12178;BME280;6152;48.728;9.256;2023-12-20T10:59:33;97328.41;;;7.59;100.00
12178;BME280;6152;48.728;9.256;2023-12-20T11:02:06;97318.72;;;7.26;100.00
12178;BME280;6152;48.728;9.256;2023-12-20T11:04:47;97310.81;;;6.90;100.00
12178;BME280;6152;48.728;9.256;2023-12-20T11:10:04;97319.41;;;6.50;100.00
12178;BME280;6152;48.728;9.256;2023-12-20T11:13:00;97313.78;;;6.60;100.00
12178;BME280;6152;48.728;9.256;2023-12-20T11:15:28;97317.72;;;6.49;100.00
12178;BME280;6152;48.728;9.256;2023-12-20T11:17:59;97304.19;;;6.42;100.00
12178;BME280;6152;48.728;9.256;2023-12-20T11:20:38;97312.25;;;6.35;100.00
12178;BME280;6152;48.728;9.256;2023-12-20T11:23:04;97311.22;;;6.19;100.00
12178;BME280;6152;48.728;9.256;2023-12-20T11:28:14;97307.81;;;5.96;100.00
12178;BME280;6152;48.728;9.256;2023-12-20T11:30:51;97302.94;;;5.89;100.00
12178;BME280;6152;48.728;9.256;2023-12-20T11:33:21;97310.28;;;5.99;100.00
12178;BME280;6152;48.728;9.256;2023-12-20T11:35:47;97316.38;;;5.97;100.00
12178;BME280;6152;48.728;9.256;2023-12-20T11:38:14;97304.72;;;5.87;100.00
12178;BME280;6152;48.728;9.256;2023-12-20T11:40:42;97307.09;;;5.93;100.00
12178;BME280;6152;48.728;9.256;2023-12-20T11:43:09;97293.94;;;5.99;100.00
12178;BME280;6152;48.728;9.256;2023-12-20T11:45:35;97308.09;;;5.89;100.00
12178;BME280;6152;48.728;9.256;2023-12-20T11:48:03;97305.69;;;5.83;100.00
12178;BME280;6152;48.728;9.256;2023-12-20T11:50:29;97307.53;;;5.81;100.00
12178;BME280;6152;48.728;9.256;2023-12-20T11:52:57;97312.50;;;6.50;100.00
12178;BME280;6152;48.728;9.256;2023-12-20T11:55:23;97301.03;;;6.56;100.00
12178;BME280;6152;48.728;9.256;2023-12-20T11:57:51;97305.22;;;6.38;100.00
12178;BME280;6152;48.728;9.256;2023-12-20T12:00:18;97306.00;;;6.20;100.00
12178;BME280;6152;48.728;9.256;2023-12-20T12:02:56;97302.03;;;6.12;100.00
12178;BME280;6152;48.728;9.256;2023-12-20T12:05:22;97299.69;;;6.05;100.00
12178;BME280;6152;48.728;9.256;2023-12-20T12:07:48;97299.38;;;5.91;100.00
12178;BME280;6152;48.728;9.256;2023-12-20T12:10:14;97308.94;;;5.89;100.00
12178;BME280;6152;48.728;9.256;2023-12-20T12:12:41;97300.41;;;5.87;100.00
12178;BME280;6152;48.728;9.256;2023-12-20T12:15:07;97301.78;;;5.73;100.00
12178;BME280;6152;48.728;9.256;2023-12-20T12:17:34;97303.72;;;5.68;100.00
12178;BME280;6152;48.728;9.256;2023-12-20T12:20:04;97307.44;;;5.60;100.00
12178;BME280;6152;48.728;9.256;2023-12-20T12:22:31;97304.06;;;5.58;100.00
12178;BME280;6152;48.728;9.256;2023-12-20T12:24:59;97293.94;;;5.54;100.00
12178;BME280;6152;48.728;9.256;2023-12-20T12:27:35;97289.94;;;5.45;100.00
12178;BME280;6152;48.728;9.256;2023-12-20T12:30:05;97280.84;;;5.35;100.00
12178;BME280;6152;48.728;9.256;2023-12-20T12:32:33;97273.63;;;5.22;100.00
12178;BME280;6152;48.728;9.256;2023-12-20T12:34:59;97264.88;;;5.26;100.00
12178;BME280;6152;48.728;9.256;2023-12-20T12:37:25;97262.25;;;5.27;100.00
12178;BME280;6152;48.728;9.256;2023-12-20T12:39:54;97258.75;;;5.28;100.00
12178;BME280;6152;48.728;9.256;2023-12-20T12:42:20;97266.34;;;5.33;100.00
12178;BME280;6152;48.728;9.256;2023-12-20T12:44:47;97266.34;;;5.33;100.00
12178;BME280;6152;48.728;9.256;2023-12-20T12:47:13;97272.09;;;5.39;100.00
12178;BME280;6152;48.728;9.256;2023-12-20T12:49:41;97272.09;;;5.39;100.00
12178;BME280;6152;48.728;9.256;2023-12-20T12:52:07;97269.16;;;5.72;100.00
12178;BME280;6152;48.728;9.256;2023-12-20T12:54:33;97270.44;;;6.05;100.00
12178;BME280;6152;48.728;9.256;2023-12-20T12:56:59;97265.41;;;6.22;100.00
12178;BME280;6152;48.728;9.256;2023-12-20T12:59:26;97268.41;;;6.33;100.00
12178;BME280;6152;48.728;9.256;2023-12-20T13:01:52;97276.41;;;6.27;100.00
12178;BME280;6152;48.728;9.256;2023-12-20T13:04:19;97274.47;;;6.32;100.00
12178;BME280;6152;48.728;9.256;2023-12-20T13:06:45;97278.34;;;6.22;100.00
12178;BME280;6152;48.728;9.256;2023-12-20T13:09:12;97272.75;;;6.11;100.00
12178;BME280;6152;48.728;9.256;2023-12-20T13:11:39;97266.75;;;6.10;100.00
12178;BME280;6152;48.728;9.256;2023-12-20T13:14:05;97268.91;;;6.21;100.00
12178;BME280;6152;48.728;9.256;2023-12-20T13:16:31;97256.25;;;6.35;100.00